sensor_id;sensor_type;location;lat;lon;timestamp;pressure;altitude;pressure_sealevel;temperature;humidity
54389;BME280;40975;50.390;8.640;2022-11-15T00:00:07;98750.47;;;8.03;100.00
54389;BME280;40975;50.390;8.640;2022-11-15T00:02:54;98755.34;;;8.37;100.00
54389;BME280;40975;50.390;8.640;2022-11-15T00:05:38;98761.31;;;8.49;100.00
54389;BME280;40975;50.390;8.640;2022-11-15T00:08:22;98752.16;;;8.53;100.00
54389;BME280;40975;50.390;8.640;2022-11-15T00:11:06;98754.47;;;8.56;100.00
54389;BME280;40975;50.390;8.640;2022-11-15T00:13:50;98747.09;;;8.69;100.00
54389;BME280;40975;50.390;8.640;2022-11-15T00:16:34;98745.41;;;8.68;100.00
54389;BME280;40975;50.390;8.640;2022-11-15T00:19:18;98737.75;;;8.65;100.00
54389;BME280;40975;50.390;8.640;2022-11-15T00:22:01;98737.47;;;8.68;100.00
54389;BME280;40975;50.390;8.640;2022-11-15T00:24:45;98731.72;;;8.83;100.00
54389;BME280;40975;50.390;8.640;2022-11-15T00:27:29;98744.66;;;8.86;100.00
54389;BME280;40975;50.390;8.640;2022-11-15T00:30:13;98742.00;;;8.86;100.00
54389;BME280;40975;50.390;8.640;2022-11-15T00:33:04;98738.97;;;8.81;100.00
54389;BME280;40975;50.390;8.640;2022-11-15T00:35:48;98731.56;;;8.84;100.00
54389;BME280;40975;50.390;8.640;2022-11-15T00:38:33;98729.03;;;8.93;100.00
54389;BME280;40975;50.390;8.640;2022-11-15T00:41:17;98724.59;;;8.93;100.00
54389;BME280;40975;50.390;8.640;2022-11-15T00:44:01;98728.44;;;8.99;100.00
54389;BME280;40975;50.390;8.640;2022-11-15T00:46:45;98718.06;;;9.15;100.00
54389;BME280;40975;50.390;8.640;2022-11-15T00:49:29;98721.34;;;9.27;100.00
54389;BME280;40975;50.390;8.640;2022-11-15T00:52:13;98721.88;;;9.31;100.00
54389;BME280;40975;50.390;8.640;2022-11-15T00:54:57;98719.91;;;9.33;100.00
54389;BME280;40975;50.390;8.640;2022-11-15T00:57:41;98716.53;;;9.41;100.00
54389;BME280;40975;50.390;8.640;2022-11-15T01:00:24;98712.00;;;9.51;100.00
54389;BME280;40975;50.390;8.640;2022-11-15T01:03:08;98702.00;;;9.63;100.00
54389;BME280;40975;50.390;8.640;2022-11-15T01:05:52;98704.38;;;9.66;100.00
54389;BME280;40975;50.390;8.640;2022-11-15T01:08:38;98699.97;;;9.75;100.00
54389;BME280;40975;50.390;8.640;2022-11-15T01:11:22;98708.91;;;9.74;100.00
54389;BME280;40975;50.390;8.640;2022-11-15T01:14:06;98707.56;;;9.70;100.00
54389;BME280;40975;50.390;8.640;2022-11-15T01:16:50;98707.72;;;9.68;100.00
54389;BME280;40975;50.390;8.640;2022-11-15T01:19:34;98708.00;;;9.83;100.00
54389;BME280;40975;50.390;8.640;2022-11-15T01:22:18;98710.50;;;9.85;100.00
54389;BME280;40975;50.390;8.640;2022-11-15T01:25:02;98715.63;;;9.86;100.00
54389;BME280;40975;50.390;8.640;2022-11-15T01:27:46;98713.31;;;9.83;100.00
54389;BME280;40975;50.390;8.640;2022-11-15T01:30:30;98719.78;;;9.89;100.00
54389;BME280;40975;50.390;8.640;2022-11-15T01:33:14;98702.25;;;9.88;100.00
54389;BME280;40975;50.390;8.640;2022-11-15T01:36:21;98709.34;;;9.87;100.00
54389;BME280;40975;50.390;8.640;2022-11-15T01:39:05;98711.66;;;9.82;100.00
54389;BME280;40975;50.390;8.640;2022-11-15T01:41:49;98708.31;;;9.80;100.00
54389;BME280;40975;50.390;8.640;2022-11-15T01:47:20;98703.59;;;9.74;100.00
54389;BME280;40975;50.390;8.640;2022-11-15T01:50:10;98702.69;;;9.65;100.00
54389;BME280;40975;50.390;8.640;2022-11-15T01:52:56;98705.66;;;9.62;100.00
54389;BME280;40975;50.390;8.640;2022-11-15T01:55:39;98695.59;;;9.47;100.00
54389;BME280;40975;50.390;8.640;2022-11-15T01:58:24;98701.63;;;9.40;100.00
54389;BME280;40975;50.390;8.640;2022-11-15T02:01:08;98709.47;;;9.31;100.00
54389;BME280;40975;50.390;8.640;2022-11-15T02:03:56;98699.63;;;9.24;100.00
54389;BME280;40975;50.390;8.640;2022-11-15T02:06:43;98693.63;;;9.22;100.00
54389;BME280;40975;50.390;8.640;2022-11-15T02:09:27;98682.97;;;9.13;100.00
54389;BME280;40975;50.390;8.640;2022-11-15T02:12:14;98694.00;;;9.09;100.00
54389;BME280;40975;50.390;8.640;2022-11-15T02:14:59;98698.47;;;9.08;100.00
54389;BME280;40975;50.390;8.640;2022-11-15T02:21:12;98688.28;;;9.03;100.00
54389;BME280;40975;50.390;8.640;2022-11-15T02:30:38;98672.03;;;8.98;100.00
54389;BME280;40975;50.390;8.640;2022-11-15T02:33:48;98672.03;;;8.98;100.00
54389;BME280;40975;50.390;8.640;2022-11-15T02:36:47;98672.47;;;8.94;100.00
54389;BME280;40975;50.390;8.640;2022-11-15T02:42:57;98661.19;;;8.92;100.00
54389;BME280;40975;50.390;8.640;2022-11-15T02:46:17;98663.16;;;8.90;100.00
54389;BME280;40975;50.390;8.640;2022-11-15T02:49:01;98649.13;;;8.79;100.00
54389;BME280;40975;50.390;8.640;2022-11-15T02:51:47;98654.41;;;8.89;100.00
54389;BME280;40975;50.390;8.640;2022-11-15T02:54:33;98659.41;;;8.92;100.00
54389;BME280;40975;50.390;8.640;2022-11-15T02:57:19;98651.31;;;8.94;100.00
54389;BME280;40975;50.390;8.640;2022-11-15T03:00:18;98659.09;;;8.95;100.00
54389;BME280;40975;50.390;8.640;2022-11-15T03:03:38;98651.84;;;8.97;100.00
54389;BME280;40975;50.390;8.640;2022-11-15T03:09:37;98652.69;;;8.98;100.00
54389;BME280;40975;50.390;8.640;2022-11-15T03:12:36;98623.78;;;8.86;100.00
54389;BME280;40975;50.390;8.640;2022-11-15T03:15:31;98658.63;;;9.00;100.00
54389;BME280;40975;50.390;8.640;2022-11-15T03:18:20;98656.16;;;8.98;100.00
54389;BME280;40975;50.390;8.640;2022-11-15T03:21:08;98641.09;;;8.99;100.00
54389;BME280;40975;50.390;8.640;2022-11-15T03:23:53;98637.63;;;8.98;100.00
54389;BME280;40975;50.390;8.640;2022-11-15T03:26:40;98644.88;;;8.96;100.00
54389;BME280;40975;50.390;8.640;2022-11-15T03:29:32;98645.41;;;9.00;100.00
54389;BME280;40975;50.390;8.640;2022-11-15T03:32:23;98640.81;;;9.02;100.00
54389;BME280;40975;50.390;8.640;2022-11-15T03:35:12;98646.44;;;9.17;100.00
54389;BME280;40975;50.390;8.640;2022-11-15T03:41:04;98648.25;;;9.34;100.00
54389;BME280;40975;50.390;8.640;2022-11-15T03:43:59;98649.22;;;9.33;100.00
54389;BME280;40975;50.390;8.640;2022-11-15T03:46:57;98653.25;;;9.38;100.00
54389;BME280;40975;50.390;8.640;2022-11-15T03:49:50;98647.16;;;9.37;100.00
54389;BME280;40975;50.390;8.640;2022-11-15T03:52:35;98653.94;;;9.40;100.00
54389;BME280;40975;50.390;8.640;2022-11-15T03:55:21;98656.44;;;9.41;100.00
54389;BME280;40975;50.390;8.640;2022-11-15T03:58:05;98653.78;;;9.41;100.00
54389;BME280;40975;50.390;8.640;2022-11-15T04:00:49;98645.03;;;9.41;100.00
54389;BME280;40975;50.390;8.640;2022-11-15T04:03:33;98650.44;;;9.39;100.00
54389;BME280;40975;50.390;8.640;2022-11-15T04:06:17;98651.31;;;9.40;100.00
54389;BME280;40975;50.390;8.640;2022-11-15T04:09:01;98638.28;;;9.28;100.00
54389;BME280;40975;50.390;8.640;2022-11-15T04:11:45;98651.22;;;9.31;100.00
54389;BME280;40975;50.390;8.640;2022-11-15T04:14:29;98651.28;;;9.22;100.00
54389;BME280;40975;50.390;8.640;2022-11-15T04:17:13;98643.25;;;9.13;100.00
54389;BME280;40975;50.390;8.640;2022-11-15T04:19:57;98652.84;;;9.14;100.00
54389;BME280;40975;50.390;8.640;2022-11-15T04:23:01;98654.38;;;9.17;100.00
54389;BME280;40975;50.390;8.640;2022-11-15T04:26:12;98650.28;;;9.23;100.00
54389;BME280;40975;50.390;8.640;2022-11-15T04:28:58;98645.53;;;9.26;100.00
54389;BME280;40975;50.390;8.640;2022-11-15T04:32:02;98644.94;;;9.32;100.00
54389;BME280;40975;50.390;8.640;2022-11-15T04:34:47;98645.75;;;9.33;100.00
54389;BME280;40975;50.390;8.640;2022-11-15T04:37:31;98638.13;;;9.30;100.00
54389;BME280;40975;50.390;8.640;2022-11-15T04:40:15;98639.66;;;9.32;100.00
54389;BME280;40975;50.390;8.640;2022-11-15T04:42:59;98635.47;;;9.30;100.00
54389;BME280;40975;50.390;8.640;2022-11-15T04:45:43;98633.97;;;9.27;100.00
54389;BME280;40975;50.390;8.640;2022-11-15T04:48:27;98629.97;;;9.23;100.00
54389;BME280;40975;50.390;8.640;2022-11-15T04:51:10;98618.91;;;9.10;100.00
54389;BME280;40975;50.390;8.640;2022-11-15T04:53:54;98633.09;;;9.09;100.00
54389;BME280;40975;50.390;8.640;2022-11-15T04:56:38;98618.94;;;9.00;100.00
54389;BME280;40975;50.390;8.640;2022-11-15T04:59:22;98615.63;;;8.98;100.00
54389;BME280;40975;50.390;8.640;2022-11-15T05:02:06;98611.06;;;8.90;100.00
54389;BME280;40975;50.390;8.640;2022-11-15T05:04:50;98607.50;;;8.81;100.00
54389;BME280;40975;50.390;8.640;2022-11-15T05:07:34;98611.97;;;8.81;100.00
54389;BME280;40975;50.390;8.640;2022-11-15T05:10:18;98608.53;;;8.70;100.00
54389;BME280;40975;50.390;8.640;2022-11-15T05:13:02;98609.25;;;8.63;100.00
54389;BME280;40975;50.390;8.640;2022-11-15T05:15:46;98607.06;;;8.58;100.00
54389;BME280;40975;50.390;8.640;2022-11-15T05:18:30;98604.03;;;8.53;100.00
54389;BME280;40975;50.390;8.640;2022-11-15T05:21:14;98607.22;;;8.47;100.00
54389;BME280;40975;50.390;8.640;2022-11-15T05:23:59;98603.34;;;8.41;100.00
54389;BME280;40975;50.390;8.640;2022-11-15T05:26:43;98593.19;;;8.36;100.00
54389;BME280;40975;50.390;8.640;2022-11-15T05:29:27;98593.78;;;8.30;100.00
54389;BME280;40975;50.390;8.640;2022-11-15T05:32:11;98588.94;;;8.25;100.00
54389;BME280;40975;50.390;8.640;2022-11-15T05:34:55;98583.13;;;8.12;100.00
54389;BME280;40975;50.390;8.640;2022-11-15T05:37:39;98590.50;;;8.08;100.00
54389;BME280;40975;50.390;8.640;2022-11-15T05:40:23;98586.94;;;7.90;100.00
54389;BME280;40975;50.390;8.640;2022-11-15T05:43:09;98581.41;;;7.83;100.00
54389;BME280;40975;50.390;8.640;2022-11-15T05:45:53;98580.16;;;7.77;100.00
54389;BME280;40975;50.390;8.640;2022-11-15T05:48:39;98585.19;;;7.61;100.00
54389;BME280;40975;50.390;8.640;2022-11-15T05:51:27;98586.56;;;7.45;100.00
54389;BME280;40975;50.390;8.640;2022-11-15T05:54:12;98568.94;;;7.26;100.00
54389;BME280;40975;50.390;8.640;2022-11-15T05:56:56;98579.50;;;7.46;100.00
54389;BME280;40975;50.390;8.640;2022-11-15T05:59:40;98574.50;;;7.53;100.00
54389;BME280;40975;50.390;8.640;2022-11-15T06:02:27;98574.06;;;7.57;100.00
54389;BME280;40975;50.390;8.640;2022-11-15T06:05:10;98576.97;;;7.64;100.00
54389;BME280;40975;50.390;8.640;2022-11-15T06:07:57;98575.88;;;7.67;100.00
54389;BME280;40975;50.390;8.640;2022-11-15T06:10:42;98579.75;;;7.62;100.00
54389;BME280;40975;50.390;8.640;2022-11-15T06:13:26;98589.06;;;7.67;100.00
54389;BME280;40975;50.390;8.640;2022-11-15T06:16:10;98588.66;;;7.71;100.00
54389;BME280;40975;50.390;8.640;2022-11-15T06:18:53;98598.78;;;7.76;100.00
54389;BME280;40975;50.390;8.640;2022-11-15T06:21:37;98579.34;;;7.67;100.00
54389;BME280;40975;50.390;8.640;2022-11-15T06:24:21;98580.19;;;7.58;100.00
54389;BME280;40975;50.390;8.640;2022-11-15T06:27:05;98608.66;;;7.64;100.00
54389;BME280;40975;50.390;8.640;2022-11-15T06:29:49;98611.59;;;7.61;100.00
54389;BME280;40975;50.390;8.640;2022-11-15T06:32:33;98611.16;;;7.56;100.00
54389;BME280;40975;50.390;8.640;2022-11-15T06:35:17;98610.63;;;7.52;100.00
54389;BME280;40975;50.390;8.640;2022-11-15T06:38:03;98624.25;;;7.47;100.00
54389;BME280;40975;50.390;8.640;2022-11-15T06:40:47;98625.09;;;7.48;100.00
54389;BME280;40975;50.390;8.640;2022-11-15T06:43:31;98613.53;;;7.49;100.00
54389;BME280;40975;50.390;8.640;2022-11-15T06:46:15;98615.63;;;7.55;100.00
54389;BME280;40975;50.390;8.640;2022-11-15T06:48:59;98622.16;;;7.61;100.00
54389;BME280;40975;50.390;8.640;2022-11-15T06:51:43;98617.44;;;7.65;100.00
54389;BME280;40975;50.390;8.640;2022-11-15T06:54:27;98610.22;;;7.67;100.00
54389;BME280;40975;50.390;8.640;2022-11-15T06:57:11;98610.06;;;7.68;100.00
54389;BME280;40975;50.390;8.640;2022-11-15T06:59:55;98607.41;;;7.68;100.00
54389;BME280;40975;50.390;8.640;2022-11-15T07:02:39;98613.66;;;7.67;100.00
54389;BME280;40975;50.390;8.640;2022-11-15T07:05:23;98596.56;;;7.71;100.00
54389;BME280;40975;50.390;8.640;2022-11-15T07:08:07;98600.75;;;7.74;100.00
54389;BME280;40975;50.390;8.640;2022-11-15T07:10:51;98610.19;;;7.76;100.00
54389;BME280;40975;50.390;8.640;2022-11-15T07:13:36;98614.09;;;7.72;100.00
54389;BME280;40975;50.390;8.640;2022-11-15T07:16:20;98614.50;;;7.77;100.00
54389;BME280;40975;50.390;8.640;2022-11-15T07:19:04;98622.41;;;7.77;100.00
54389;BME280;40975;50.390;8.640;2022-11-15T07:21:48;98623.00;;;7.71;100.00
54389;BME280;40975;50.390;8.640;2022-11-15T07:24:32;98619.06;;;7.75;100.00
54389;BME280;40975;50.390;8.640;2022-11-15T07:27:16;98627.16;;;7.74;100.00
54389;BME280;40975;50.390;8.640;2022-11-15T07:30:00;98617.81;;;7.89;100.00
54389;BME280;40975;50.390;8.640;2022-11-15T07:32:44;98619.84;;;8.05;100.00
54389;BME280;40975;50.390;8.640;2022-11-15T07:35:28;98630.09;;;8.28;100.00
54389;BME280;40975;50.390;8.640;2022-11-15T07:38:13;98624.81;;;8.28;100.00
54389;BME280;40975;50.390;8.640;2022-11-15T07:41:00;98617.59;;;8.30;100.00
54389;BME280;40975;50.390;8.640;2022-11-15T07:43:44;98622.59;;;8.23;100.00
54389;BME280;40975;50.390;8.640;2022-11-15T07:46:28;98619.94;;;8.33;100.00
54389;BME280;40975;50.390;8.640;2022-11-15T07:49:12;98605.28;;;8.39;100.00
54389;BME280;40975;50.390;8.640;2022-11-15T07:51:56;98608.00;;;8.67;100.00
54389;BME280;40975;50.390;8.640;2022-11-15T07:54:40;98619.59;;;8.84;100.00
54389;BME280;40975;50.390;8.640;2022-11-15T07:57:24;98635.22;;;9.05;100.00
54389;BME280;40975;50.390;8.640;2022-11-15T08:00:08;98616.94;;;9.30;100.00
54389;BME280;40975;50.390;8.640;2022-11-15T08:02:52;98634.88;;;9.54;100.00
54389;BME280;40975;50.390;8.640;2022-11-15T08:05:37;98633.53;;;9.68;100.00
54389;BME280;40975;50.390;8.640;2022-11-15T08:08:21;98623.44;;;9.72;100.00
54389;BME280;40975;50.390;8.640;2022-11-15T08:11:05;98620.56;;;9.65;100.00
54389;BME280;40975;50.390;8.640;2022-11-15T08:13:49;98614.34;;;9.56;100.00
54389;BME280;40975;50.390;8.640;2022-11-15T08:16:33;98612.03;;;9.53;100.00
54389;BME280;40975;50.390;8.640;2022-11-15T08:19:16;98610.31;;;9.70;100.00
54389;BME280;40975;50.390;8.640;2022-11-15T08:22:00;98613.81;;;9.71;100.00
54389;BME280;40975;50.390;8.640;2022-11-15T08:24:44;98616.25;;;9.82;100.00
54389;BME280;40975;50.390;8.640;2022-11-15T08:27:28;98615.50;;;9.72;100.00
54389;BME280;40975;50.390;8.640;2022-11-15T08:30:12;98612.22;;;9.60;100.00
54389;BME280;40975;50.390;8.640;2022-11-15T08:32:58;98606.63;;;9.81;100.00
54389;BME280;40975;50.390;8.640;2022-11-15T08:35:43;98598.56;;;9.91;100.00
54389;BME280;40975;50.390;8.640;2022-11-15T08:38:27;98608.13;;;9.84;100.00
54389;BME280;40975;50.390;8.640;2022-11-15T08:41:17;98611.69;;;9.92;100.00
54389;BME280;40975;50.390;8.640;2022-11-15T08:44:03;98599.16;;;10.03;100.00
54389;BME280;40975;50.390;8.640;2022-11-15T08:46:47;98606.94;;;10.31;100.00
54389;BME280;40975;50.390;8.640;2022-11-15T08:49:31;98618.59;;;10.38;100.00
54389;BME280;40975;50.390;8.640;2022-11-15T08:52:15;98609.38;;;10.24;100.00
54389;BME280;40975;50.390;8.640;2022-11-15T08:54:59;98603.50;;;10.38;100.00
54389;BME280;40975;50.390;8.640;2022-11-15T08:57:44;98601.84;;;10.72;100.00
54389;BME280;40975;50.390;8.640;2022-11-15T09:00:28;98598.00;;;10.58;100.00
54389;BME280;40975;50.390;8.640;2022-11-15T09:03:12;98599.97;;;10.56;100.00
54389;BME280;40975;50.390;8.640;2022-11-15T09:06:00;98600.50;;;10.68;100.00
54389;BME280;40975;50.390;8.640;2022-11-15T09:08:44;98595.38;;;10.75;100.00
54389;BME280;40975;50.390;8.640;2022-11-15T09:11:28;98604.19;;;11.68;100.00
54389;BME280;40975;50.390;8.640;2022-11-15T09:14:13;98602.31;;;11.35;100.00
54389;BME280;40975;50.390;8.640;2022-11-15T09:16:57;98598.47;;;11.21;100.00
54389;BME280;40975;50.390;8.640;2022-11-15T09:19:41;98591.81;;;12.81;100.00
54389;BME280;40975;50.390;8.640;2022-11-15T09:22:25;98584.53;;;14.96;100.00
54389;BME280;40975;50.390;8.640;2022-11-15T09:25:09;98583.72;;;13.90;100.00
54389;BME280;40975;50.390;8.640;2022-11-15T09:27:53;98585.59;;;12.88;100.00
54389;BME280;40975;50.390;8.640;2022-11-15T09:30:37;98597.31;;;12.15;100.00
54389;BME280;40975;50.390;8.640;2022-11-15T09:33:21;98593.88;;;11.73;100.00
54389;BME280;40975;50.390;8.640;2022-11-15T09:36:07;98595.53;;;11.65;100.00
54389;BME280;40975;50.390;8.640;2022-11-15T09:38:52;98596.69;;;11.46;100.00
54389;BME280;40975;50.390;8.640;2022-11-15T09:44:44;98589.88;;;11.52;100.00
54389;BME280;40975;50.390;8.640;2022-11-15T09:50:42;98580.59;;;12.54;100.00
54389;BME280;40975;50.390;8.640;2022-11-15T09:53:13;98576.81;;;13.34;100.00
54389;BME280;40975;50.390;8.640;2022-11-15T09:55:58;98575.03;;;15.08;100.00
54389;BME280;40975;50.390;8.640;2022-11-15T10:00:59;98568.44;;;17.63;82.90
54389;BME280;40975;50.390;8.640;2022-11-15T10:03:34;98565.53;;;18.39;79.38
54389;BME280;40975;50.390;8.640;2022-11-15T10:06:03;98557.53;;;17.58;83.66
54389;BME280;40975;50.390;8.640;2022-11-15T10:11:25;98557.88;;;14.81;96.99
54389;BME280;40975;50.390;8.640;2022-11-15T10:13:53;98565.84;;;13.76;100.00
54389;BME280;40975;50.390;8.640;2022-11-15T10:22:21;98548.09;;;12.67;100.00
54389;BME280;40975;50.390;8.640;2022-11-15T10:24:50;98538.06;;;12.77;100.00
54389;BME280;40975;50.390;8.640;2022-11-15T10:27:18;98543.28;;;12.94;100.00
54389;BME280;40975;50.390;8.640;2022-11-15T10:29:49;98532.16;;;13.36;100.00
54389;BME280;40975;50.390;8.640;2022-11-15T10:32:20;98536.22;;;13.56;100.00
54389;BME280;40975;50.390;8.640;2022-11-15T10:34:47;98537.47;;;14.13;100.00
54389;BME280;40975;50.390;8.640;2022-11-15T10:37:13;98533.03;;;14.50;100.00
54389;BME280;40975;50.390;8.640;2022-11-15T10:39:38;98536.94;;;14.84;98.96
54389;BME280;40975;50.390;8.640;2022-11-15T10:42:18;98534.06;;;14.49;99.67
54389;BME280;40975;50.390;8.640;2022-11-15T10:44:50;98533.59;;;14.45;100.00
54389;BME280;40975;50.390;8.640;2022-11-15T10:47:28;98528.19;;;14.90;100.00
54389;BME280;40975;50.390;8.640;2022-11-15T10:50:04;98533.84;;;15.02;98.14
54389;BME280;40975;50.390;8.640;2022-11-15T10:52:31;98511.13;;;14.40;100.00
54389;BME280;40975;50.390;8.640;2022-11-15T10:57:49;98503.34;;;14.60;100.00
54389;BME280;40975;50.390;8.640;2022-11-15T11:05:30;98485.66;;;14.37;100.00
54389;BME280;40975;50.390;8.640;2022-11-15T11:08:05;98479.25;;;14.90;99.75
54389;BME280;40975;50.390;8.640;2022-11-15T11:10:58;98478.69;;;14.95;97.58
54389;BME280;40975;50.390;8.640;2022-11-15T11:13:27;98468.13;;;15.30;98.55
54389;BME280;40975;50.390;8.640;2022-11-15T11:19:33;98465.03;;;14.31;100.00
54389;BME280;40975;50.390;8.640;2022-11-15T11:22:22;98461.84;;;14.72;99.47
54389;BME280;40975;50.390;8.640;2022-11-15T11:27:43;98456.72;;;14.77;99.70
54389;BME280;40975;50.390;8.640;2022-11-15T11:30:32;98449.88;;;14.90;98.77
54389;BME280;40975;50.390;8.640;2022-11-15T11:33:12;98439.06;;;14.40;99.60
54389;BME280;40975;50.390;8.640;2022-11-15T11:38:49;98432.16;;;14.45;100.00
54389;BME280;40975;50.390;8.640;2022-11-15T11:44:28;98425.22;;;14.51;99.27
54389;BME280;40975;50.390;8.640;2022-11-15T11:47:29;98417.66;;;14.55;99.88
54389;BME280;40975;50.390;8.640;2022-11-15T11:49:59;98419.91;;;14.73;99.88
54389;BME280;40975;50.390;8.640;2022-11-15T11:52:35;98422.97;;;14.70;99.50
54389;BME280;40975;50.390;8.640;2022-11-15T11:55:14;98420.25;;;14.48;99.90
54389;BME280;40975;50.390;8.640;2022-11-15T11:58:12;98421.13;;;14.34;100.00
54389;BME280;40975;50.390;8.640;2022-11-15T12:00:43;98418.63;;;13.95;100.00
54389;BME280;40975;50.390;8.640;2022-11-15T12:03:15;98427.47;;;13.51;100.00
54389;BME280;40975;50.390;8.640;2022-11-15T12:05:48;98423.63;;;13.30;100.00
54389;BME280;40975;50.390;8.640;2022-11-15T12:08:40;98418.09;;;13.17;100.00
54389;BME280;40975;50.390;8.640;2022-11-15T12:11:41;98417.16;;;12.63;100.00
54389;BME280;40975;50.390;8.640;2022-11-15T12:14:27;98402.50;;;12.67;100.00
54389;BME280;40975;50.390;8.640;2022-11-15T12:16:54;98408.78;;;12.51;100.00
54389;BME280;40975;50.390;8.640;2022-11-15T12:19:19;98406.44;;;12.48;100.00
54389;BME280;40975;50.390;8.640;2022-11-15T12:22:26;98400.97;;;12.50;100.00
54389;BME280;40975;50.390;8.640;2022-11-15T12:28:34;98384.28;;;12.79;100.00
54389;BME280;40975;50.390;8.640;2022-11-15T12:31:24;98390.56;;;12.86;100.00
54389;BME280;40975;50.390;8.640;2022-11-15T12:33:56;98384.22;;;12.87;100.00
54389;BME280;40975;50.390;8.640;2022-11-15T12:39:07;98368.56;;;13.07;100.00
54389;BME280;40975;50.390;8.640;2022-11-15T12:41:41;98371.91;;;12.86;100.00
54389;BME280;40975;50.390;8.640;2022-11-15T12:44:13;98371.38;;;12.91;100.00
54389;BME280;40975;50.390;8.640;2022-11-15T12:59:51;98369.69;;;12.52;100.00
54389;BME280;40975;50.390;8.640;2022-11-15T13:02:46;98359.78;;;12.37;100.00
54389;BME280;40975;50.390;8.640;2022-11-15T13:13:41;98341.22;;;12.29;100.00
54389;BME280;40975;50.390;8.640;2022-11-15T13:15:59;98344.84;;;12.36;100.00
54389;BME280;40975;50.390;8.640;2022-11-15T13:20:55;98336.63;;;12.46;100.00
54389;BME280;40975;50.390;8.640;2022-11-15T13:23:21;98328.81;;;12.44;100.00
54389;BME280;40975;50.390;8.640;2022-11-15T13:26:13;98330.53;;;12.37;100.00
54389;BME280;40975;50.390;8.640;2022-11-15T13:28:44;98330.06;;;12.34;100.00
54389;BME280;40975;50.390;8.640;2022-11-15T13:33:57;98311.44;;;12.34;100.00
54389;BME280;40975;50.390;8.640;2022-11-15T13:36:26;98315.91;;;12.33;100.00
54389;BME280;40975;50.390;8.640;2022-11-15T13:39:05;98321.28;;;12.25;100.00
54389;BME280;40975;50.390;8.640;2022-11-15T13:41:35;98317.41;;;12.12;100.00
54389;BME280;40975;50.390;8.640;2022-11-15T13:44:02;98311.25;;;12.12;100.00
54389;BME280;40975;50.390;8.640;2022-11-15T13:46:30;98313.44;;;12.08;100.00
54389;BME280;40975;50.390;8.640;2022-11-15T13:54:09;98316.22;;;12.15;100.00
54389;BME280;40975;50.390;8.640;2022-11-15T13:56:48;98310.59;;;12.10;100.00
54389;BME280;40975;50.390;8.640;2022-11-15T13:59:23;98295.81;;;12.07;100.00
54389;BME280;40975;50.390;8.640;2022-11-15T14:01:50;98297.28;;;12.10;100.00
54389;BME280;40975;50.390;8.640;2022-11-15T14:04:20;98302.47;;;12.03;100.00
54389;BME280;40975;50.390;8.640;2022-11-15T14:06:49;98289.03;;;12.05;100.00
54389;BME280;40975;50.390;8.640;2022-11-15T14:09:38;98288.19;;;12.04;100.00
54389;BME280;40975;50.390;8.640;2022-11-15T14:12:29;98285.19;;;12.07;100.00
54389;BME280;40975;50.390;8.640;2022-11-15T14:14:57;98279.19;;;12.05;100.00
54389;BME280;40975;50.390;8.640;2022-11-15T14:19:54;98283.84;;;12.11;100.00
54389;BME280;40975;50.390;8.640;2022-11-15T14:27:29;98270.88;;;12.08;100.00
54389;BME280;40975;50.390;8.640;2022-11-15T14:29:54;98273.53;;;12.08;100.00
54389;BME280;40975;50.390;8.640;2022-11-15T14:32:22;98256.94;;;12.06;100.00
54389;BME280;40975;50.390;8.640;2022-11-15T14:34:49;98257.13;;;12.05;100.00
54389;BME280;40975;50.390;8.640;2022-11-15T14:37:32;98257.28;;;12.03;100.00
54389;BME280;40975;50.390;8.640;2022-11-15T14:40:03;98255.16;;;11.98;100.00
54389;BME280;40975;50.390;8.640;2022-11-15T14:42:29;98246.53;;;11.88;100.00
54389;BME280;40975;50.390;8.640;2022-11-15T14:44:55;98237.41;;;11.91;100.00
54389;BME280;40975;50.390;8.640;2022-11-15T14:47:20;98244.94;;;11.79;100.00
54389;BME280;40975;50.390;8.640;2022-11-15T14:49:47;98243.28;;;11.78;100.00
54389;BME280;40975;50.390;8.640;2022-11-15T14:52:30;98233.19;;;11.73;100.00
54389;BME280;40975;50.390;8.640;2022-11-15T14:55:00;98235.88;;;11.65;100.00
54389;BME280;40975;50.390;8.640;2022-11-15T14:57:27;98230.56;;;11.65;100.00
54389;BME280;40975;50.390;8.640;2022-11-15T14:59:53;98227.63;;;11.60;100.00
54389;BME280;40975;50.390;8.640;2022-11-15T15:02:20;98224.03;;;11.53;100.00
54389;BME280;40975;50.390;8.640;2022-11-15T15:04:48;98216.53;;;11.48;100.00
54389;BME280;40975;50.390;8.640;2022-11-15T15:07:14;98210.59;;;11.46;100.00
54389;BME280;40975;50.390;8.640;2022-11-15T15:09:40;98199.13;;;11.45;100.00
54389;BME280;40975;50.390;8.640;2022-11-15T15:12:21;98193.16;;;11.43;100.00
54389;BME280;40975;50.390;8.640;2022-11-15T15:14:49;98198.84;;;11.40;100.00
54389;BME280;40975;50.390;8.640;2022-11-15T15:17:15;98189.56;;;11.36;100.00
54389;BME280;40975;50.390;8.640;2022-11-15T15:19:41;98182.09;;;11.31;100.00
54389;BME280;40975;50.390;8.640;2022-11-15T15:22:13;98188.59;;;11.29;100.00
54389;BME280;40975;50.390;8.640;2022-11-15T15:24:39;98183.63;;;11.26;100.00
54389;BME280;40975;50.390;8.640;2022-11-15T15:27:04;98180.03;;;11.18;100.00
54389;BME280;40975;50.390;8.640;2022-11-15T15:29:29;98172.75;;;11.12;100.00
54389;BME280;40975;50.390;8.640;2022-11-15T15:31:55;98171.44;;;11.08;100.00
54389;BME280;40975;50.390;8.640;2022-11-15T15:34:20;98178.75;;;11.06;100.00
54389;BME280;40975;50.390;8.640;2022-11-15T15:36:45;98169.50;;;11.02;100.00
54389;BME280;40975;50.390;8.640;2022-11-15T15:39:10;98166.50;;;10.97;100.00
54389;BME280;40975;50.390;8.640;2022-11-15T15:41:37;98160.53;;;10.95;100.00
54389;BME280;40975;50.390;8.640;2022-11-15T15:44:02;98150.63;;;10.88;100.00
54389;BME280;40975;50.390;8.640;2022-11-15T15:46:27;98158.09;;;10.85;100.00
54389;BME280;40975;50.390;8.640;2022-11-15T15:48:53;98141.72;;;10.73;100.00
54389;BME280;40975;50.390;8.640;2022-11-15T15:51:18;98159.09;;;10.84;100.00
54389;BME280;40975;50.390;8.640;2022-11-15T15:53:43;98147.81;;;10.82;100.00
54389;BME280;40975;50.390;8.640;2022-11-15T15:56:09;98154.66;;;10.76;100.00